Time;durP1;ratioP1;P1;durP2;ratioP2;P2;SDS_P1;SDS_P2;PMS_P1;PMS_P2;Temp;Humidity;BMP_temperature;BMP_pressure;BME280_temperature;BME280_humidity;BME280_pressure;Samples;Min_cycle;Max_cycle;Signal;HPM_P1;HPM_P2
2022/10/15 00:00:09;;;;;;;44.80;24.95;;;;;;;;;;5056460;28;20028;-79
2022/10/15 00:02:35;;;;;;;50.67;26.20;;;;;;;;;;5057587;28;20129;-81
2022/10/15 00:05:01;;;;;;;49.17;25.58;;;;;;;;;;5057661;28;20079;-81
2022/10/15 00:07:28;;;;;;;48.08;25.05;;;;;;;;;;5057337;28;20159;-81
2022/10/15 00:09:54;;;;;;;48.28;27.33;;;;;;;;;;5039964;28;20033;-81
2022/10/15 00:12:20;;;;;;;49.17;27.50;;;;;;;;;;5057103;28;20090;-80
2022/10/15 00:14:46;;;;;;;48.42;27.05;;;;;;;;;;5056465;28;20100;-80
2022/10/15 00:17:12;;;;;;;51.92;26.35;;;;;;;;;;5045293;28;20049;-80
2022/10/15 00:19:38;;;;;;;50.75;26.67;;;;;;;;;;5057247;28;20040;-80
2022/10/15 00:22:04;;;;;;;45.08;26.92;;;;;;;;;;5056653;28;20037;-79
2022/10/15 00:24:30;;;;;;;50.88;27.35;;;;;;;;;;5056526;28;20029;-79
2022/10/15 00:26:56;;;;;;;49.42;27.25;;;;;;;;;;5055453;28;20033;-79
2022/10/15 00:29:22;;;;;;;52.83;28.55;;;;;;;;;;5055056;28;20060;-81
2022/10/15 00:31:48;;;;;;;55.53;29.50;;;;;;;;;;5039012;28;20388;-82
2022/10/15 00:34:14;;;;;;;47.53;27.08;;;;;;;;;;5055284;28;20025;-82
2022/10/15 00:36:40;;;;;;;58.70;29.98;;;;;;;;;;5055850;28;20425;-82
2022/10/15 00:39:06;;;;;;;54.38;29.73;;;;;;;;;;5055272;28;20053;-82
2022/10/15 00:41:34;;;;;;;54.05;30.42;;;;;;;;;;5055314;28;20063;-82
2022/10/15 00:44:02;;;;;;;52.60;29.45;;;;;;;;;;5054471;28;20499;-81
2022/10/15 00:46:34;;;;;;;57.28;31.02;;;;;;;;;;5056369;28;20391;-82
2022/10/15 00:49:09;;;;;;;61.10;30.52;;;;;;;;;;5036634;28;20039;-82
2022/10/15 00:51:38;;;;;;;60.67;31.25;;;;;;;;;;5054984;28;20021;-81
2022/10/15 00:54:04;;;;;;;58.58;30.63;;;;;;;;;;5054517;28;20487;-80
2022/10/15 00:56:31;;;;;;;62.25;34.33;;;;;;;;;;5054284;28;20558;-80
2022/10/15 00:58:57;;;;;;;60.17;32.22;;;;;;;;;;5053805;28;20035;-80
2022/10/15 01:01:24;;;;;;;60.47;32.85;;;;;;;;;;5054258;28;20036;-80
2022/10/15 01:03:50;;;;;;;58.00;30.80;;;;;;;;;;5053434;28;20029;-80
2022/10/15 01:06:16;;;;;;;62.38;32.22;;;;;;;;;;5054598;28;20029;-80
2022/10/15 01:08:42;;;;;;;56.25;31.50;;;;;;;;;;5036169;28;20021;-80
2022/10/15 01:11:08;;;;;;;58.08;29.90;;;;;;;;;;5054482;28;20029;-80
2022/10/15 01:13:44;;;;;;;56.60;30.05;;;;;;;;;;5054982;28;20024;-81
2022/10/15 01:16:19;;;;;;;58.03;30.52;;;;;;;;;;5052748;28;20025;-81
2022/10/15 01:19:01;;;;;;;57.65;29.90;;;;;;;;;;5053771;28;20105;-81
2022/10/15 01:21:45;;;;;;;55.13;27.67;;;;;;;;;;5054489;28;20020;-81
2022/10/15 01:24:17;;;;;;;52.42;29.70;;;;;;;;;;5052571;28;20597;-81
2022/10/15 01:26:52;;;;;;;54.10;29.13;;;;;;;;;;5050810;28;20574;-81
2022/10/15 01:29:37;;;;;;;51.75;28.13;;;;;;;;;;5055401;28;20442;-81
2022/10/15 01:32:11;;;;;;;50.15;28.83;;;;;;;;;;5056451;28;20029;-82
2022/10/15 01:34:44;;;;;;;49.88;28.38;;;;;;;;;;5051549;28;20036;-82
2022/10/15 01:37:18;;;;;;;52.65;29.80;;;;;;;;;;5054787;28;20029;-82
2022/10/15 01:39:46;;;;;;;58.95;30.70;;;;;;;;;;5037829;28;20037;-81
2022/10/15 01:42:15;;;;;;;51.78;29.05;;;;;;;;;;5056039;28;20071;-81
2022/10/15 01:44:47;;;;;;;60.40;30.48;;;;;;;;;;5056084;28;20028;-81
2022/10/15 01:47:33;;;;;;;55.08;29.08;;;;;;;;;;5055346;28;20029;-80
2022/10/15 01:50:00;;;;;;;49.83;29.05;;;;;;;;;;5054730;28;20032;-81
2022/10/15 01:52:28;;;;;;;53.85;29.42;;;;;;;;;;5054486;28;20021;-80
2022/10/15 01:54:55;;;;;;;55.15;30.13;;;;;;;;;;5053333;28;20029;-80
2022/10/15 01:57:21;;;;;;;55.30;31.05;;;;;;;;;;5047298;28;20079;-80
2022/10/15 01:59:47;;;;;;;53.92;32.13;;;;;;;;;;5053530;28;20042;-81
2022/10/15 02:02:13;;;;;;;55.20;29.52;;;;;;;;;;5052453;28;20037;-80
2022/10/15 02:04:40;;;;;;;56.72;29.55;;;;;;;;;;5055116;28;20549;-81
2022/10/15 02:07:09;;;;;;;56.78;30.00;;;;;;;;;;5054977;28;20021;-82
2022/10/15 02:09:35;;;;;;;54.92;29.85;;;;;;;;;;5053447;28;20028;-81
2022/10/15 02:12:20;;;;;;;61.78;30.50;;;;;;;;;;5052774;28;20021;-81
2022/10/15 02:14:48;;;;;;;51.90;30.55;;;;;;;;;;5052747;28;20387;-81
2022/10/15 02:17:16;;;;;;;53.05;29.73;;;;;;;;;;5036413;28;20025;-80
2022/10/15 02:19:42;;;;;;;57.90;31.65;;;;;;;;;;5054023;28;20035;-80
2022/10/15 02:22:11;;;;;;;53.50;29.60;;;;;;;;;;5052810;28;20100;-81
2022/10/15 02:24:58;;;;;;;56.92;30.67;;;;;;;;;;5056827;28;20056;-81
2022/10/15 02:27:25;;;;;;;52.67;30.92;;;;;;;;;;5053732;28;20077;-81
2022/10/15 02:29:52;;;;;;;56.88;31.58;;;;;;;;;;5054868;28;20104;-81
2022/10/15 02:32:19;;;;;;;55.42;29.92;;;;;;;;;;5053498;28;20095;-81
2022/10/15 02:34:46;;;;;;;56.65;30.27;;;;;;;;;;5054760;28;20100;-81
2022/10/15 02:37:12;;;;;;;60.80;31.65;;;;;;;;;;5037004;28;20316;-82
2022/10/15 02:39:38;;;;;;;55.38;30.63;;;;;;;;;;5055323;28;20041;-82
2022/10/15 02:42:04;;;;;;;55.28;30.60;;;;;;;;;;5054783;28;20036;-82
2022/10/15 02:44:30;;;;;;;54.28;30.08;;;;;;;;;;5053949;28;20027;-82
2022/10/15 02:46:58;;;;;;;55.63;31.42;;;;;;;;;;5055896;28;20021;-82
2022/10/15 02:49:24;;;;;;;64.22;32.83;;;;;;;;;;5055156;28;20029;-81
2022/10/15 02:51:50;;;;;;;52.38;29.90;;;;;;;;;;5055610;28;20040;-81
2022/10/15 02:54:16;;;;;;;52.63;30.77;;;;;;;;;;5054291;28;20081;-82
2022/10/15 02:56:42;;;;;;;55.25;30.10;;;;;;;;;;5053633;28;20060;-81
2022/10/15 02:59:08;;;;;;;53.20;30.05;;;;;;;;;;5053635;28;20035;-81
2022/10/15 03:01:34;;;;;;;59.10;34.10;;;;;;;;;;5053126;28;20036;-81
2022/10/15 03:04:01;;;;;;;84.55;47.90;;;;;;;;;;5048754;28;20032;-81
2022/10/15 03:06:27;;;;;;;91.00;52.38;;;;;;;;;;5053978;28;20032;-81
2022/10/15 03:08:53;;;;;;;80.32;47.85;;;;;;;;;;5053709;28;20021;-81
2022/10/15 03:11:19;;;;;;;68.57;40.53;;;;;;;;;;5052925;28;20028;-81
2022/10/15 03:13:45;;;;;;;59.35;36.40;;;;;;;;;;5038683;28;20116;-81
2022/10/15 03:16:11;;;;;;;57.28;33.88;;;;;;;;;;5057906;28;20029;-81
2022/10/15 03:18:37;;;;;;;54.20;32.13;;;;;;;;;;5057685;28;20067;-80
2022/10/15 03:21:05;;;;;;;56.05;31.98;;;;;;;;;;5056713;28;20066;-80
2022/10/15 03:23:31;;;;;;;51.13;30.20;;;;;;;;;;5054827;28;20414;-80
2022/10/15 03:25:57;;;;;;;55.35;30.92;;;;;;;;;;5070451;28;20028;-81
2022/10/15 03:28:23;;;;;;;55.63;31.38;;;;;;;;;;5074093;28;20029;-81
2022/10/15 03:30:49;;;;;;;53.97;31.50;;;;;;;;;;5074570;28;20058;-81
2022/10/15 03:33:15;;;;;;;57.10;31.00;;;;;;;;;;5071844;28;20025;-81
2022/10/15 03:35:41;;;;;;;51.05;31.02;;;;;;;;;;5074712;28;20024;-81
2022/10/15 03:38:08;;;;;;;73.78;46.42;;;;;;;;;;5073572;28;20085;-81
2022/10/15 03:40:34;;;;;;;69.45;43.28;;;;;;;;;;5071971;28;20045;-82
2022/10/15 03:43:00;;;;;;;67.28;38.13;;;;;;;;;;5044593;28;20091;-82
2022/10/15 03:45:26;;;;;;;58.28;34.38;;;;;;;;;;5055488;28;20033;-82
2022/10/15 03:47:52;;;;;;;55.38;33.88;;;;;;;;;;5061875;28;20025;-82
2022/10/15 03:50:18;;;;;;;62.70;36.45;;;;;;;;;;5062051;28;20021;-82
2022/10/15 03:52:44;;;;;;;66.53;36.28;;;;;;;;;;5059483;28;20032;-82
2022/10/15 03:55:10;;;;;;;61.58;35.17;;;;;;;;;;5041713;28;20013;-82
2022/10/15 03:57:37;;;;;;;57.38;33.15;;;;;;;;;;5057963;28;20029;-82
2022/10/15 04:00:04;;;;;;;65.75;35.22;;;;;;;;;;5054752;28;20025;-81
2022/10/15 04:02:31;;;;;;;63.33;35.17;;;;;;;;;;5042310;28;20025;-81
2022/10/15 04:04:57;;;;;;;64.13;34.10;;;;;;;;;;5058622;28;20029;-81
2022/10/15 04:07:23;;;;;;;60.53;31.90;;;;;;;;;;5058079;28;20083;-81
2022/10/15 04:09:49;;;;;;;58.35;32.72;;;;;;;;;;5057274;28;20031;-81
2022/10/15 04:12:16;;;;;;;56.65;30.75;;;;;;;;;;5057262;28;20483;-80
2022/10/15 04:14:42;;;;;;;56.45;31.13;;;;;;;;;;5057342;28;20063;-80
2022/10/15 04:17:08;;;;;;;51.45;28.40;;;;;;;;;;5058787;28;20025;-80
2022/10/15 04:19:34;;;;;;;52.67;30.63;;;;;;;;;;5058669;28;20444;-80
2022/10/15 04:22:00;;;;;;;53.35;30.15;;;;;;;;;;5057121;28;20092;-80
2022/10/15 04:24:26;;;;;;;55.05;29.88;;;;;;;;;;5056627;28;20025;-80
2022/10/15 04:26:52;;;;;;;51.92;29.95;;;;;;;;;;5058084;28;20235;-80
2022/10/15 04:29:18;;;;;;;50.00;28.23;;;;;;;;;;5058101;28;20029;-80
2022/10/15 04:31:45;;;;;;;51.35;29.90;;;;;;;;;;5056720;28;20029;-80
2022/10/15 04:34:12;;;;;;;46.35;26.63;;;;;;;;;;5055361;28;20471;-80
2022/10/15 04:36:38;;;;;;;50.72;28.52;;;;;;;;;;5056840;28;20489;-79
2022/10/15 04:39:04;;;;;;;51.17;28.58;;;;;;;;;;5056261;28;20060;-79
2022/10/15 04:41:30;;;;;;;53.45;29.25;;;;;;;;;;5056338;28;20032;-79
2022/10/15 04:43:57;;;;;;;48.70;28.48;;;;;;;;;;5055555;28;20055;-79
2022/10/15 04:46:23;;;;;;;50.42;29.85;;;;;;;;;;5057323;28;20033;-79
2022/10/15 04:48:51;;;;;;;55.10;30.85;;;;;;;;;;5054753;28;20029;-79
2022/10/15 04:51:19;;;;;;;56.17;30.45;;;;;;;;;;5056667;28;20013;-79
2022/10/15 04:53:45;;;;;;;52.75;29.65;;;;;;;;;;5056483;28;20029;-80
2022/10/15 04:56:14;;;;;;;53.53;29.75;;;;;;;;;;5056296;28;20036;-79
2022/10/15 04:58:41;;;;;;;53.53;29.08;;;;;;;;;;5037217;28;20105;-79
2022/10/15 05:01:11;;;;;;;58.35;31.27;;;;;;;;;;5055953;28;20453;-79
2022/10/15 05:03:37;;;;;;;61.38;34.30;;;;;;;;;;5056392;28;20112;-79
2022/10/15 05:06:04;;;;;;;61.45;33.88;;;;;;;;;;5055321;28;20446;-80
2022/10/15 05:08:31;;;;;;;60.38;32.22;;;;;;;;;;5054673;28;20029;-80
2022/10/15 05:11:01;;;;;;;62.80;35.70;;;;;;;;;;5056098;28;20025;-80
2022/10/15 05:13:27;;;;;;;58.63;33.55;;;;;;;;;;5053011;28;20021;-80
2022/10/15 05:15:53;;;;;;;60.75;33.33;;;;;;;;;;5056744;28;20074;-80
2022/10/15 05:18:19;;;;;;;49.38;29.63;;;;;;;;;;5057385;28;20040;-80
2022/10/15 05:20:45;;;;;;;53.38;31.55;;;;;;;;;;5037441;28;20024;-80
2022/10/15 05:23:11;;;;;;;54.17;32.38;;;;;;;;;;5056498;28;20031;-80
2022/10/15 05:25:37;;;;;;;57.30;31.65;;;;;;;;;;5053903;28;20446;-80
2022/10/15 05:28:03;;;;;;;52.10;28.98;;;;;;;;;;5057217;28;20025;-80
2022/10/15 05:30:29;;;;;;;61.08;33.60;;;;;;;;;;5055092;28;20028;-80
2022/10/15 05:32:55;;;;;;;57.72;33.40;;;;;;;;;;5056683;28;20021;-80
2022/10/15 05:35:21;;;;;;;65.13;34.08;;;;;;;;;;5055777;28;20544;-80
2022/10/15 05:37:48;;;;;;;61.28;33.17;;;;;;;;;;5056195;28;20059;-80
2022/10/15 05:40:14;;;;;;;64.32;36.10;;;;;;;;;;5056945;28;20049;-79
2022/10/15 05:42:40;;;;;;;63.17;35.00;;;;;;;;;;5057456;28;20082;-79
2022/10/15 05:45:07;;;;;;;66.63;34.55;;;;;;;;;;5056008;28;20092;-80
2022/10/15 05:47:33;;;;;;;56.40;32.53;;;;;;;;;;5038601;28;20025;-80
2022/10/15 05:49:59;;;;;;;57.28;32.05;;;;;;;;;;5039117;28;20017;-80
2022/10/15 05:52:25;;;;;;;54.75;32.42;;;;;;;;;;5056004;28;20483;-80
2022/10/15 05:54:51;;;;;;;56.22;32.15;;;;;;;;;;5055350;28;20029;-79
2022/10/15 05:57:17;;;;;;;50.10;31.05;;;;;;;;;;5043066;28;20032;-80
2022/10/15 05:59:43;;;;;;;53.10;30.52;;;;;;;;;;5046770;28;20020;-79
2022/10/15 06:02:14;;;;;;;54.50;31.40;;;;;;;;;;5048492;28;20521;-79
2022/10/15 06:04:41;;;;;;;58.22;33.17;;;;;;;;;;5054134;28;20017;-79
2022/10/15 06:07:07;;;;;;;56.27;34.10;;;;;;;;;;5054319;28;20029;-79
2022/10/15 06:09:33;;;;;;;59.70;31.73;;;;;;;;;;5054689;28;20025;-79
2022/10/15 06:11:59;;;;;;;51.33;30.40;;;;;;;;;;5053960;28;20025;-79
2022/10/15 06:14:25;;;;;;;55.20;30.98;;;;;;;;;;5054126;28;20471;-79
2022/10/15 06:16:53;;;;;;;54.25;32.40;;;;;;;;;;5055558;28;20025;-78
2022/10/15 06:19:19;;;;;;;56.63;31.75;;;;;;;;;;5055075;28;20032;-78
2022/10/15 06:21:45;;;;;;;57.90;32.13;;;;;;;;;;5035903;28;20020;-79
2022/10/15 06:24:11;;;;;;;51.10;30.63;;;;;;;;;;5055922;28;20113;-79
2022/10/15 06:26:37;;;;;;;53.10;31.17;;;;;;;;;;5054829;28;20104;-78
2022/10/15 06:29:03;;;;;;;56.78;31.27;;;;;;;;;;5050487;28;20411;-78
2022/10/15 06:31:30;;;;;;;59.75;33.85;;;;;;;;;;5051716;28;20519;-79
2022/10/15 06:33:57;;;;;;;59.50;32.47;;;;;;;;;;5053881;28;20025;-80
2022/10/15 06:36:27;;;;;;;58.95;33.83;;;;;;;;;;5054951;28;20309;-79
2022/10/15 06:38:53;;;;;;;58.70;32.78;;;;;;;;;;5070759;23;20056;-78
2022/10/15 06:41:19;;;;;;;62.17;34.08;;;;;;;;;;5010188;28;20036;-78
2022/10/15 06:43:48;;;;;;;59.55;33.40;;;;;;;;;;5020118;28;20104;-78
2022/10/15 06:46:17;;;;;;;64.10;35.50;;;;;;;;;;5029259;28;20044;-78
2022/10/15 06:48:43;;;;;;;60.20;34.30;;;;;;;;;;5026580;28;20021;-79
2022/10/15 06:51:09;;;;;;;58.58;33.60;;;;;;;;;;5012915;28;20029;-78
2022/10/15 06:53:41;;;;;;;57.30;30.85;;;;;;;;;;5018397;28;20396;-80
2022/10/15 06:56:07;;;;;;;59.87;33.83;;;;;;;;;;5035010;28;20341;-79
2022/10/15 06:58:33;;;;;;;62.28;34.22;;;;;;;;;;5019073;28;20276;-77
2022/10/15 07:01:00;;;;;;;62.33;35.00;;;;;;;;;;5011263;28;20400;-78
2022/10/15 07:03:26;;;;;;;59.83;33.22;;;;;;;;;;5015264;28;20552;-78
2022/10/15 07:05:52;;;;;;;61.67;34.67;;;;;;;;;;5011980;28;20109;-77
2022/10/15 07:08:18;;;;;;;56.25;31.00;;;;;;;;;;5006053;28;20125;-77
2022/10/15 07:10:44;;;;;;;58.50;33.80;;;;;;;;;;4993654;28;20031;-77
2022/10/15 07:13:10;;;;;;;57.50;32.40;;;;;;;;;;5012700;28;20029;-76
2022/10/15 07:15:36;;;;;;;57.70;32.55;;;;;;;;;;5013645;28;20030;-79
2022/10/15 07:18:02;;;;;;;56.35;32.20;;;;;;;;;;5014353;28;20026;-80
2022/10/15 07:20:29;;;;;;;57.72;33.63;;;;;;;;;;5012279;28;20033;-78
2022/10/15 07:22:59;;;;;;;60.63;33.35;;;;;;;;;;5013228;28;20065;-79
2022/10/15 07:25:25;;;;;;;60.13;34.30;;;;;;;;;;5012992;28;20479;-78
2022/10/15 07:27:54;;;;;;;60.03;36.60;;;;;;;;;;5013202;28;20030;-78
2022/10/15 07:30:20;;;;;;;57.78;35.17;;;;;;;;;;5020526;28;20026;-78
2022/10/15 07:32:46;;;;;;;55.42;33.08;;;;;;;;;;5014732;28;20021;-78
2022/10/15 07:35:12;;;;;;;60.65;35.10;;;;;;;;;;5014267;28;20026;-79
2022/10/15 07:37:38;;;;;;;56.42;33.53;;;;;;;;;;5014211;28;20026;-79
2022/10/15 07:40:04;;;;;;;55.08;32.45;;;;;;;;;;5012403;28;20061;-78
2022/10/15 07:42:30;;;;;;;54.35;34.22;;;;;;;;;;5035793;28;20032;-78
2022/10/15 07:44:58;;;;;;;54.47;33.47;;;;;;;;;;5017705;28;20095;-78
2022/10/15 07:47:24;;;;;;;54.97;31.92;;;;;;;;;;5014357;28;20061;-78
2022/10/15 07:49:50;;;;;;;52.85;33.55;;;;;;;;;;5029791;28;20055;-78
2022/10/15 07:52:16;;;;;;;50.25;32.08;;;;;;;;;;5035321;28;20057;-77
2022/10/15 07:54:42;;;;;;;46.72;29.45;;;;;;;;;;5034424;28;20464;-78
2022/10/15 07:57:08;;;;;;;51.92;32.55;;;;;;;;;;5016657;28;20030;-79
2022/10/15 07:59:34;;;;;;;49.92;30.70;;;;;;;;;;5038329;28;20021;-79
2022/10/15 08:02:00;;;;;;;47.95;30.33;;;;;;;;;;5021948;28;20038;-79
2022/10/15 08:04:26;;;;;;;48.60;31.95;;;;;;;;;;5037729;28;20036;-78
2022/10/15 08:06:52;;;;;;;49.30;32.15;;;;;;;;;;5037436;28;20407;-79
2022/10/15 08:09:18;;;;;;;48.63;31.05;;;;;;;;;;5037459;28;20471;-79
2022/10/15 08:11:44;;;;;;;45.70;29.65;;;;;;;;;;5018681;28;20028;-79
2022/10/15 08:14:10;;;;;;;50.33;31.02;;;;;;;;;;5043428;28;20483;-79
2022/10/15 08:16:36;;;;;;;48.90;32.03;;;;;;;;;;5017518;28;20036;-78
2022/10/15 08:19:02;;;;;;;42.22;28.83;;;;;;;;;;5034643;28;20025;-77
2022/10/15 08:21:28;;;;;;;46.50;29.00;;;;;;;;;;5034070;28;20434;-77
2022/10/15 08:23:54;;;;;;;49.30;28.98;;;;;;;;;;5033294;28;20029;-77
2022/10/15 08:26:21;;;;;;;42.70;26.75;;;;;;;;;;5053495;28;20025;-77
2022/10/15 08:28:47;;;;;;;47.72;30.45;;;;;;;;;;5055288;28;20079;-77
2022/10/15 08:31:13;;;;;;;46.88;29.58;;;;;;;;;;5048799;28;20028;-77
2022/10/15 08:33:39;;;;;;;50.70;30.27;;;;;;;;;;5033377;28;20495;-78
2022/10/15 08:36:06;;;;;;;45.42;30.42;;;;;;;;;;5032794;28;20045;-77
2022/10/15 08:38:32;;;;;;;51.33;31.42;;;;;;;;;;5039786;28;20434;-77
2022/10/15 08:40:59;;;;;;;46.70;30.85;;;;;;;;;;5027411;28;20102;-78
2022/10/15 08:43:36;;;;;;;49.00;31.42;;;;;;;;;;5035200;28;20155;-78
2022/10/15 08:46:03;;;;;;;48.03;30.45;;;;;;;;;;5038968;28;20033;-80
2022/10/15 08:48:59;;;;;;;49.10;31.38;;;;;;;;;;5034915;28;20037;-78
2022/10/15 08:51:27;;;;;;;45.28;29.33;;;;;;;;;;4980993;28;20528;-77
2022/10/15 08:53:55;;;;;;;49.28;31.80;;;;;;;;;;4992683;28;20112;-78
2022/10/15 08:56:24;;;;;;;49.85;31.67;;;;;;;;;;4995062;28;20038;-78
2022/10/15 08:59:01;;;;;;;47.40;30.98;;;;;;;;;;4982315;28;20457;-78
2022/10/15 09:01:44;;;;;;;50.20;31.73;;;;;;;;;;4989665;28;20042;-78
2022/10/15 09:04:16;;;;;;;49.92;30.00;;;;;;;;;;4988937;28;20121;-77
2022/10/15 09:06:42;;;;;;;51.70;32.72;;;;;;;;;;4991530;28;20237;-78
2022/10/15 09:09:20;;;;;;;48.53;30.38;;;;;;;;;;4973810;28;20037;-78
2022/10/15 09:12:24;;;;;;;43.63;29.08;;;;;;;;;;4992238;28;20564;-77
2022/10/15 09:14:50;;;;;;;45.10;27.63;;;;;;;;;;4927233;29;20041;-76
2022/10/15 09:17:20;;;;;;;44.65;29.80;;;;;;;;;;4914635;29;20032;-78
2022/10/15 09:19:49;;;;;;;45.08;29.15;;;;;;;;;;4934693;29;20060;-79
2022/10/15 09:22:17;;;;;;;52.47;31.30;;;;;;;;;;4936821;29;20035;-79
2022/10/15 09:24:43;;;;;;;49.50;31.20;;;;;;;;;;4936375;29;20035;-79
2022/10/15 09:27:14;;;;;;;45.90;29.05;;;;;;;;;;4944201;28;20117;-79
2022/10/15 09:29:40;;;;;;;44.47;29.70;;;;;;;;;;4995031;28;20135;-79
2022/10/15 09:32:15;;;;;;;47.20;29.23;;;;;;;;;;4984130;28;20590;-83
2022/10/15 09:34:44;;;;;;;43.17;28.20;;;;;;;;;;4974333;28;20042;-80
2022/10/15 09:37:19;;;;;;;41.75;27.05;;;;;;;;;;4976200;28;20084;-80
2022/10/15 09:39:57;;;;;;;41.47;27.10;;;;;;;;;;4973790;28;20039;-79
2022/10/15 09:42:34;;;;;;;42.40;27.55;;;;;;;;;;4974589;28;20038;-80
2022/10/15 09:45:03;;;;;;;44.75;28.67;;;;;;;;;;4989791;28;20153;-79
2022/10/15 09:47:31;;;;;;;41.20;29.23;;;;;;;;;;5017823;28;20048;-80
2022/10/15 09:49:57;;;;;;;56.42;35.00;;;;;;;;;;5033968;28;20040;-80
2022/10/15 09:52:29;;;;;;;48.38;32.53;;;;;;;;;;5035525;28;20344;-79
2022/10/15 09:54:55;;;;;;;47.30;30.95;;;;;;;;;;5035690;28;20045;-80
2022/10/15 09:57:23;;;;;;;41.00;26.85;;;;;;;;;;5040036;28;20071;-83
2022/10/15 09:59:56;;;;;;;38.47;27.10;;;;;;;;;;5045831;28;20033;-79
2022/10/15 10:02:24;;;;;;;41.95;27.83;;;;;;;;;;5045154;28;20104;-79
2022/10/15 10:04:50;;;;;;;47.15;30.20;;;;;;;;;;5025850;28;20017;-79
2022/10/15 10:07:30;;;;;;;44.55;29.38;;;;;;;;;;5044529;28;20025;-79
2022/10/15 10:09:57;;;;;;;39.60;28.10;;;;;;;;;;5033740;28;20033;-78
2022/10/15 10:12:28;;;;;;;41.67;26.92;;;;;;;;;;5015406;28;20029;-80
2022/10/15 10:14:56;;;;;;;39.55;27.42;;;;;;;;;;5033991;28;20027;-81
2022/10/15 10:17:23;;;;;;;41.85;27.30;;;;;;;;;;5035909;28;20392;-81
2022/10/15 10:20:04;;;;;;;39.17;25.70;;;;;;;;;;5019827;28;20017;-80
2022/10/15 10:22:41;;;;;;;40.75;27.77;;;;;;;;;;5018574;28;20514;-81
2022/10/15 10:25:22;;;;;;;37.97;26.73;;;;;;;;;;5040860;28;20029;-81
2022/10/15 10:27:48;;;;;;;39.22;26.00;;;;;;;;;;5037473;28;20087;-82
2022/10/15 10:30:14;;;;;;;36.13;24.92;;;;;;;;;;5034715;28;20021;-79
2022/10/15 10:32:42;;;;;;;37.20;26.10;;;;;;;;;;5033894;28;20472;-79
2022/10/15 10:35:15;;;;;;;38.97;24.80;;;;;;;;;;5040136;28;20510;-80
2022/10/15 10:37:42;;;;;;;40.53;25.85;;;;;;;;;;5031760;28;20072;-80
2022/10/15 10:40:21;;;;;;;38.72;25.70;;;;;;;;;;5028874;28;20038;-81
2022/10/15 10:42:47;;;;;;;35.25;24.10;;;;;;;;;;5015037;28;20025;-80
2022/10/15 10:45:18;;;;;;;35.97;23.55;;;;;;;;;;5019017;28;20034;-82
2022/10/15 10:47:44;;;;;;;33.60;25.15;;;;;;;;;;5015977;28;20036;-80
2022/10/15 10:50:28;;;;;;;33.55;21.75;;;;;;;;;;5020137;28;20026;-81
2022/10/15 10:52:54;;;;;;;36.08;24.02;;;;;;;;;;5015982;28;20038;-81
2022/10/15 10:55:23;;;;;;;33.85;24.40;;;;;;;;;;5013386;28;20030;-82
2022/10/15 10:57:53;;;;;;;33.25;21.50;;;;;;;;;;5010256;28;20022;-80
2022/10/15 11:00:37;;;;;;;30.60;21.63;;;;;;;;;;5000757;28;20027;-81
2022/10/15 11:03:03;;;;;;;30.65;21.67;;;;;;;;;;4999473;28;20034;-80
2022/10/15 11:05:31;;;;;;;30.60;21.27;;;;;;;;;;5022891;28;20034;-81
2022/10/15 11:08:00;;;;;;;34.65;22.70;;;;;;;;;;5035710;28;20030;-80
2022/10/15 11:10:39;;;;;;;35.55;23.50;;;;;;;;;;5005785;28;20038;-81
2022/10/15 11:13:12;;;;;;;35.75;22.23;;;;;;;;;;5019930;28;20026;-81
2022/10/15 11:15:41;;;;;;;34.42;23.10;;;;;;;;;;5017240;28;20077;-82
2022/10/15 11:18:22;;;;;;;36.70;22.80;;;;;;;;;;5016543;28;20029;-81
2022/10/15 11:21:18;;;;;;;30.98;22.02;;;;;;;;;;5018608;28;20073;-80
2022/10/15 11:23:47;;;;;;;36.45;23.98;;;;;;;;;;4980978;28;20047;-80
2022/10/15 11:26:32;;;;;;;33.35;23.23;;;;;;;;;;5018813;28;20018;-80
2022/10/15 11:29:07;;;;;;;38.67;25.45;;;;;;;;;;5017990;28;20026;-80
2022/10/15 11:31:39;;;;;;;33.70;23.38;;;;;;;;;;5018061;28;20076;-78
2022/10/15 11:34:14;;;;;;;34.30;24.08;;;;;;;;;;5027598;28;20502;-79
2022/10/15 11:36:59;;;;;;;35.92;23.80;;;;;;;;;;5022066;28;20500;-79
2022/10/15 11:39:25;;;;;;;32.30;22.65;;;;;;;;;;5031208;28;20045;-79
2022/10/15 11:42:09;;;;;;;31.83;23.65;;;;;;;;;;5022663;28;20369;-79
2022/10/15 11:44:39;;;;;;;30.55;21.77;;;;;;;;;;5042875;28;20147;-78
2022/10/15 11:47:14;;;;;;;33.20;22.73;;;;;;;;;;5037141;28;20022;-79
2022/10/15 11:49:55;;;;;;;32.97;21.67;;;;;;;;;;5037308;28;20026;-78
2022/10/15 11:52:44;;;;;;;31.30;22.00;;;;;;;;;;5035371;28;20035;-77
2022/10/15 11:55:10;;;;;;;34.25;22.60;;;;;;;;;;4970918;28;20032;-77
2022/10/15 11:57:39;;;;;;;37.50;23.45;;;;;;;;;;5018912;28;20468;-79
2022/10/15 12:00:14;;;;;;;36.65;24.63;;;;;;;;;;5019048;28;20021;-79
2022/10/15 12:02:40;;;;;;;39.80;24.88;;;;;;;;;;5056732;28;20029;-78
2022/10/15 12:05:21;;;;;;;39.58;24.67;;;;;;;;;;5055170;28;20033;-79
2022/10/15 12:07:48;;;;;;;40.95;25.10;;;;;;;;;;5058370;28;20029;-79
2022/10/15 12:10:21;;;;;;;39.25;24.33;;;;;;;;;;5057437;28;20513;-79
2022/10/15 12:12:53;;;;;;;35.63;22.65;;;;;;;;;;5058615;28;20017;-80
2022/10/15 12:15:37;;;;;;;38.80;23.95;;;;;;;;;;5058436;28;20031;-80
2022/10/15 12:18:11;;;;;;;39.20;24.50;;;;;;;;;;5056216;28;20036;-79
2022/10/15 12:20:37;;;;;;;39.53;23.52;;;;;;;;;;5038912;28;20041;-80
2022/10/15 12:23:03;;;;;;;36.78;23.80;;;;;;;;;;5034788;28;20060;-80
2022/10/15 12:25:35;;;;;;;36.65;23.70;;;;;;;;;;5037251;28;20045;-80
2022/10/15 12:28:04;;;;;;;43.53;26.37;;;;;;;;;;5035462;28;20538;-79
2022/10/15 12:30:33;;;;;;;46.42;26.40;;;;;;;;;;5035100;28;20022;-80
2022/10/15 12:33:00;;;;;;;36.97;21.92;;;;;;;;;;5035801;28;20025;-80
2022/10/15 12:35:38;;;;;;;34.88;22.92;;;;;;;;;;5036679;28;20068;-80
2022/10/15 12:38:16;;;;;;;31.35;21.27;;;;;;;;;;5036676;28;20068;-80
2022/10/15 12:40:42;;;;;;;38.30;22.58;;;;;;;;;;5036940;28;20044;-80
2022/10/15 12:43:20;;;;;;;34.95;21.60;;;;;;;;;;5034613;28;20036;-80
2022/10/15 12:45:53;;;;;;;37.95;23.52;;;;;;;;;;5035147;28;20116;-80
2022/10/15 12:48:34;;;;;;;38.88;24.17;;;;;;;;;;5035905;28;20029;-80
2022/10/15 12:51:15;;;;;;;40.88;25.13;;;;;;;;;;5035285;28;20025;-80
2022/10/15 12:53:42;;;;;;;39.17;24.65;;;;;;;;;;5035799;28;20460;-80
2022/10/15 12:56:11;;;;;;;43.67;25.65;;;;;;;;;;5032943;28;20022;-80
2022/10/15 12:58:50;;;;;;;39.25;23.45;;;;;;;;;;5031199;28;20091;-81
2022/10/15 13:01:19;;;;;;;42.83;26.17;;;;;;;;;;5037696;28;20037;-81
2022/10/15 13:03:51;;;;;;;40.83;25.85;;;;;;;;;;5030965;28;20392;-80
2022/10/15 13:06:20;;;;;;;42.20;26.33;;;;;;;;;;5031941;28;20026;-81
2022/10/15 13:08:48;;;;;;;44.28;27.73;;;;;;;;;;5032834;28;20669;-80
2022/10/15 13:11:23;;;;;;;43.63;28.17;;;;;;;;;;5028717;28;20041;-81
2022/10/15 13:13:50;;;;;;;41.75;26.13;;;;;;;;;;5030816;28;20021;-80
2022/10/15 13:16:16;;;;;;;44.55;28.83;;;;;;;;;;5034172;28;20117;-79
2022/10/15 13:18:47;;;;;;;51.78;31.05;;;;;;;;;;5035240;28;20057;-80
2022/10/15 13:21:13;;;;;;;47.50;29.33;;;;;;;;;;5032366;28;20045;-80
2022/10/15 13:23:44;;;;;;;48.65;29.27;;;;;;;;;;5032878;28;20411;-80
2022/10/15 13:26:17;;;;;;;46.97;30.73;;;;;;;;;;5029337;28;20030;-81
2022/10/15 13:28:44;;;;;;;50.97;30.63;;;;;;;;;;5033062;28;20029;-81
2022/10/15 13:31:15;;;;;;;48.90;30.45;;;;;;;;;;5026719;28;20047;-81
2022/10/15 13:33:42;;;;;;;51.15;31.88;;;;;;;;;;5018252;28;20040;-80
2022/10/15 13:36:42;;;;;;;50.70;31.52;;;;;;;;;;5033851;28;20037;-80
2022/10/15 13:39:20;;;;;;;54.97;33.22;;;;;;;;;;5032573;28;20053;-80
2022/10/15 13:41:46;;;;;;;51.10;32.90;;;;;;;;;;5034603;28;20033;-80
2022/10/15 13:44:23;;;;;;;50.50;32.25;;;;;;;;;;5014238;28;20029;-80
2022/10/15 13:46:49;;;;;;;54.88;32.55;;;;;;;;;;5035665;28;20036;-80
2022/10/15 13:49:17;;;;;;;57.05;33.75;;;;;;;;;;5031781;28;20405;-81
2022/10/15 13:51:45;;;;;;;50.88;32.72;;;;;;;;;;5028066;28;20104;-80
2022/10/15 13:54:22;;;;;;;52.03;31.38;;;;;;;;;;5028391;28;20026;-81
2022/10/15 13:56:56;;;;;;;50.70;31.73;;;;;;;;;;5033210;28;20132;-82
2022/10/15 13:59:24;;;;;;;50.40;32.13;;;;;;;;;;5028953;28;20029;-82
2022/10/15 14:01:59;;;;;;;59.67;35.63;;;;;;;;;;5031126;28;20036;-81
2022/10/15 14:04:25;;;;;;;53.90;32.53;;;;;;;;;;5029006;28;20356;-82
2022/10/15 14:06:55;;;;;;;50.10;31.80;;;;;;;;;;5031026;28;20546;-82
2022/10/15 14:09:23;;;;;;;54.53;32.90;;;;;;;;;;5034198;28;20492;-81
2022/10/15 14:11:50;;;;;;;53.00;30.77;;;;;;;;;;5033369;28;20446;-81
2022/10/15 14:14:28;;;;;;;52.45;32.45;;;;;;;;;;5034982;28;20026;-81
2022/10/15 14:16:55;;;;;;;52.60;34.10;;;;;;;;;;5033568;28;20074;-81
2022/10/15 14:19:25;;;;;;;55.05;33.17;;;;;;;;;;5035187;28;20053;-82
2022/10/15 14:21:52;;;;;;;52.95;32.20;;;;;;;;;;5034205;28;20029;-82
2022/10/15 14:24:22;;;;;;;55.60;34.55;;;;;;;;;;5052536;28;20024;-82
2022/10/15 14:26:49;;;;;;;52.63;31.77;;;;;;;;;;5047676;28;20064;-81